Time,TemperatureF,DewpointF,PressureIn,WindDirection,WindDirectionDegrees,WindSpeedMPH,WindSpeedGustMPH,Humidity,HourlyPrecipIn,Conditions,Clouds,dailyrainin,SoftwareType,DateUTC
2013-02-22 00:00:00,22.5,17.9,30.11,East,84,4.0,12.0,82,0.00,,---,0.00,VWS V14.00,2013-02-22 05:00:00,
2013-02-22 00:30:00,22.0,17.9,30.10,ESE,110,7.0,15.0,84,0.00,,---,0.00,VWS V14.00,2013-02-22 05:30:00,
2013-02-22 01:00:00,21.4,18.4,30.10,East,84,2.0,16.0,88,0.00,,---,0.00,VWS V14.00,2013-02-22 06:00:00,
2013-02-22 01:30:00,21.0,18.5,30.06,East,99,8.0,17.0,90,0.00,,---,0.00,VWS V14.00,2013-02-22 06:30:00,
2013-02-22 02:00:00,21.2,18.7,30.03,East,79,6.0,11.0,90,0.00,,---,0.00,VWS V14.00,2013-02-22 07:00:00,
2013-02-22 02:30:00,21.6,18.9,30.02,ESE,103,5.0,15.0,89,0.00,,---,0.00,VWS V14.00,2013-02-22 07:30:00,
2013-02-22 03:00:00,21.7,18.7,30.00,ESE,113,3.0,14.0,88,0.00,,---,0.00,VWS V14.00,2013-02-22 08:00:00,
2013-02-22 03:30:00,21.9,19.4,29.98,SE,136,2.0,13.0,90,0.00,,---,0.00,VWS V14.00,2013-02-22 08:30:00,
2013-02-22 04:00:00,22.3,20.1,29.96,SSE,153,6.0,12.0,91,0.00,,---,0.00,VWS V14.00,2013-02-22 09:00:00,
2013-02-22 04:30:00,22.5,20.3,29.96,SE,136,3.0,12.0,91,0.00,,---,0.00,VWS V14.00,2013-02-22 09:30:00,
2013-02-22 05:00:00,22.9,20.9,29.94,East,101,4.0,10.0,92,0.00,,---,0.00,VWS V14.00,2013-02-22 10:00:00,
2013-02-22 05:30:00,23.3,21.3,29.94,ESE,112,3.0,13.0,92,0.00,,---,0.00,VWS V14.00,2013-02-22 10:30:00,
2013-02-22 06:00:00,23.4,21.7,29.94,ESE,108,1.0,8.0,93,0.00,,---,0.00,VWS V14.00,2013-02-22 11:00:00,
2013-02-22 06:30:00,23.8,22.1,29.93,SE,124,2.0,6.0,93,0.00,,---,0.00,VWS V14.00,2013-02-22 11:30:00,
2013-02-22 07:00:00,24.2,22.5,29.93,ESE,111,1.0,8.0,93,0.00,,---,0.00,VWS V14.00,2013-02-22 12:00:00,
2013-02-22 07:30:00,24.2,22.5,29.93,East,96,3.0,7.0,93,0.00,,---,0.00,VWS V14.00,2013-02-22 12:30:00,
2013-02-22 08:00:00,24.3,22.6,29.93,ESE,113,2.0,7.0,93,0.00,,---,0.00,VWS V14.00,2013-02-22 13:00:00,
2013-02-22 08:30:00,24.6,22.9,29.92,East,89,6.0,8.0,93,0.00,,---,0.00,VWS V14.00,2013-02-22 13:30:00,
2013-02-22 09:00:00,25.1,23.6,29.92,SE,124,2.0,7.0,94,0.00,,---,0.00,VWS V14.00,2013-02-22 14:00:00,
2013-02-22 09:30:00,25.8,24.3,29.91,ESE,105,3.0,7.0,94,0.00,,---,0.00,VWS V14.00,2013-02-22 14:30:00,
2013-02-22 10:00:00,26.9,25.4,29.90,ESE,108,2.0,7.0,94,0.00,,---,0.00,VWS V14.00,2013-02-22 15:00:00,
2013-02-22 10:30:00,27.6,25.8,29.90,SSE,157,4.0,6.0,93,0.00,,---,0.00,VWS V14.00,2013-02-22 15:30:00,
2013-02-22 11:00:00,28.6,26.8,29.91,ESE,121,2.0,6.0,93,0.00,,---,0.00,VWS V14.00,2013-02-22 16:00:00,
2013-02-22 11:30:00,29.6,27.8,29.91,SE,146,1.0,4.0,93,0.00,,---,0.00,VWS V14.00,2013-02-22 16:30:00,
2013-02-22 12:00:00,31.1,29.3,29.90,SE,138,2.0,5.0,93,0.00,,---,0.00,VWS V14.00,2013-02-22 17:00:00,
2013-02-22 12:30:00,32.6,30.8,29.90,SE,134,1.0,6.0,93,0.00,,---,0.00,VWS V14.00,2013-02-22 17:30:00,
2013-02-22 13:00:00,33.1,31.3,29.89,ESE,110,1.0,5.0,93,0.00,,---,0.00,VWS V14.00,2013-02-22 18:00:00,
2013-02-22 13:30:00,33.9,32.1,29.89,SSW,212,0.0,5.0,93,0.00,,---,0.00,VWS V14.00,2013-02-22 18:30:00,
2013-02-22 14:00:00,33.9,32.6,29.89,WSW,243,2.0,5.0,95,0.00,,---,0.00,VWS V14.00,2013-02-22 19:00:00,
2013-02-22 14:30:00,33.8,32.8,29.90,SW,236,4.0,14.0,96,0.00,,---,0.00,VWS V14.00,2013-02-22 19:30:00,
2013-02-22 15:00:00,33.8,32.5,29.90,SW,218,2.0,14.0,95,0.00,,---,0.00,VWS V14.00,2013-02-22 20:00:00,
2013-02-22 15:30:00,34.0,32.7,29.89,West,267,3.0,13.0,95,0.00,,---,0.00,VWS V14.00,2013-02-22 20:30:00,
2013-02-22 16:00:00,34.3,32.5,29.90,SW,226,5.0,13.0,93,0.00,,---,0.00,VWS V14.00,2013-02-22 21:00:00,
2013-02-22 16:30:00,34.0,32.2,29.90,WSW,249,5.0,16.0,93,0.00,,---,0.00,VWS V14.00,2013-02-22 21:30:00,
2013-02-22 17:00:00,33.7,31.9,29.91,West,277,3.0,16.0,93,0.00,,---,0.00,VWS V14.00,2013-02-22 22:00:00,
2013-02-22 17:30:00,33.5,32.0,29.92,SW,218,8.0,13.0,94,0.00,,---,0.00,VWS V14.00,2013-02-22 22:30:00,
2013-02-22 18:00:00,33.7,31.6,29.92,WSW,249,8.0,20.0,92,0.01,,---,0.01,VWS V14.00,2013-02-22 23:00:00,
2013-02-22 18:30:00,33.7,31.4,29.93,West,263,8.0,15.0,91,0.01,,---,0.01,VWS V14.00,2013-02-22 23:30:00,
2013-02-22 19:00:00,33.6,31.3,29.94,WSW,255,5.0,13.0,91,0.02,,---,0.02,VWS V14.00,2013-02-23 00:00:00,
2013-02-22 19:30:00,33.2,30.6,29.94,West,259,10.0,15.0,90,0.01,,---,0.02,VWS V14.00,2013-02-23 00:30:00,
2013-02-22 20:00:00,32.9,30.6,29.95,WSW,252,5.0,13.0,91,0.02,,---,0.03,VWS V14.00,2013-02-23 01:00:00,
2013-02-22 20:30:00,32.8,30.5,29.95,WSW,252,5.0,12.0,91,0.01,,---,0.03,VWS V14.00,2013-02-23 01:30:00,
2013-02-22 21:00:00,32.4,30.1,29.95,WSW,250,11.0,14.0,91,0.01,,---,0.03,VWS V14.00,2013-02-23 02:00:00,
2013-02-22 21:30:00,31.8,28.7,29.96,West,264,8.0,16.0,88,0.00,,---,0.03,VWS V14.00,2013-02-23 02:30:00,
2013-02-22 22:00:00,31.8,28.4,29.97,West,274,8.0,16.0,87,0.00,,---,0.03,VWS V14.00,2013-02-23 03:00:00,
2013-02-22 22:30:00,31.4,27.4,29.96,SW,233,7.0,13.0,85,0.00,,---,0.03,VWS V14.00,2013-02-23 03:30:00,
2013-02-22 23:00:00,31.1,27.4,29.96,West,274,9.0,12.0,86,0.00,,---,0.03,VWS V14.00,2013-02-23 04:00:00,
2013-02-22 23:30:00,30.7,26.5,29.96,West,267,5.0,13.0,84,0.00,,---,0.03,VWS V14.00,2013-02-23 04:30:00,